createdAt,value
2023-12-11T00:01:41.872Z,2.73
2023-12-11T00:04:10.635Z,2.75
2023-12-11T00:06:38.992Z,2.76
2023-12-11T00:09:07.533Z,2.77
2023-12-11T00:11:35.788Z,2.78
2023-12-11T00:14:04.158Z,2.81
2023-12-11T00:16:32.490Z,2.84
2023-12-11T00:19:00.827Z,2.86
2023-12-11T00:21:30.302Z,2.87
2023-12-11T00:23:58.717Z,2.88
2023-12-11T00:26:26.971Z,2.89
2023-12-11T00:28:55.239Z,2.92
2023-12-11T00:31:24.411Z,2.96
2023-12-11T00:33:52.893Z,3.00
2023-12-11T00:36:21.165Z,3.03
2023-12-11T00:38:54.414Z,3.05
2023-12-11T00:41:24.212Z,3.08
2023-12-11T00:43:52.692Z,3.11
2023-12-11T00:46:23.314Z,3.15
2023-12-11T00:48:52.002Z,3.18
2023-12-11T00:51:22.018Z,3.19
2023-12-11T00:53:50.478Z,3.19
2023-12-11T00:56:18.814Z,3.19
2023-12-11T00:58:47.108Z,3.19
2023-12-11T01:01:15.408Z,3.19
2023-12-11T01:03:43.949Z,3.19
2023-12-11T01:06:12.439Z,3.19
2023-12-11T01:08:41.257Z,3.19
2023-12-11T01:11:10.151Z,3.20
2023-12-11T01:13:39.950Z,3.19
2023-12-11T01:16:08.503Z,3.18
2023-12-11T01:18:37.068Z,3.18
2023-12-11T01:21:05.751Z,3.17
2023-12-11T01:23:33.966Z,3.16
2023-12-11T01:26:02.299Z,3.16
2023-12-11T01:28:30.721Z,3.15
2023-12-11T01:30:59.051Z,3.14
2023-12-11T01:33:27.444Z,3.13
2023-12-11T01:35:55.775Z,3.10
2023-12-11T01:38:24.141Z,3.07
2023-12-11T01:40:53.516Z,3.04
2023-12-11T01:43:22.096Z,3.00
2023-12-11T01:46:19.490Z,2.96
2023-12-11T01:48:53.189Z,2.90
2023-12-11T01:51:22.023Z,2.84
2023-12-11T01:53:52.935Z,2.78
2023-12-11T01:56:22.700Z,2.74
2023-12-11T01:58:51.945Z,2.69
2023-12-11T02:01:24.838Z,2.65
2023-12-11T02:03:53.556Z,2.63
2023-12-11T02:06:22.864Z,2.60
2023-12-11T02:08:52.291Z,2.58
2023-12-11T02:11:21.667Z,2.55
2023-12-11T02:13:49.982Z,2.53
2023-12-11T02:16:18.407Z,2.51
2023-12-11T02:18:46.906Z,2.50
2023-12-11T02:21:15.639Z,2.48
2023-12-11T02:24:00.079Z,2.46
2023-12-11T02:26:28.633Z,2.45
2023-12-11T02:29:00.395Z,2.45
2023-12-11T02:31:28.703Z,2.43
2023-12-11T02:33:57.229Z,2.43
2023-12-11T02:36:25.769Z,2.40
2023-12-11T02:38:54.040Z,2.39
2023-12-11T02:41:22.456Z,2.37
2023-12-11T02:43:50.712Z,2.35
2023-12-11T02:46:18.999Z,2.33
2023-12-11T02:48:47.536Z,2.32
2023-12-11T02:51:17.879Z,2.31
2023-12-11T02:53:47.044Z,2.30
2023-12-11T02:56:15.413Z,2.29
2023-12-11T02:58:45.513Z,2.28
2023-12-11T03:01:14.037Z,2.28
2023-12-11T03:03:42.864Z,2.28
2023-12-11T03:06:19.694Z,2.29
2023-12-11T03:08:48.151Z,2.29
2023-12-11T03:11:16.536Z,2.29
2023-12-11T03:13:46.836Z,2.28
2023-12-11T03:16:17.439Z,2.28
2023-12-11T03:18:46.068Z,2.28
2023-12-11T03:21:15.248Z,2.26
2023-12-11T03:23:43.631Z,2.25
2023-12-11T03:26:12.205Z,2.24
2023-12-11T03:28:40.488Z,2.23
2023-12-11T03:31:08.826Z,2.23
2023-12-11T03:33:37.145Z,2.23
2023-12-11T03:36:05.969Z,2.22
2023-12-11T03:38:34.338Z,2.21
2023-12-11T03:41:02.755Z,2.19
2023-12-11T03:43:31.026Z,2.19
2023-12-11T03:46:01.369Z,2.18
2023-12-11T03:48:30.580Z,2.17
2023-12-11T03:50:59.307Z,2.15
2023-12-11T03:53:27.725Z,2.14
2023-12-11T03:55:56.021Z,2.13
2023-12-11T03:58:24.241Z,2.11
2023-12-11T04:00:52.860Z,2.10
2023-12-11T04:03:21.437Z,2.10
2023-12-11T04:05:49.782Z,2.09
2023-12-11T04:08:18.240Z,2.09
2023-12-11T04:10:46.603Z,2.09
2023-12-11T04:13:15.750Z,2.08
2023-12-11T04:15:44.293Z,2.07
2023-12-11T04:18:12.812Z,2.08
2023-12-11T04:20:41.243Z,2.08
2023-12-11T04:23:09.919Z,2.07
2023-12-11T04:25:38.246Z,2.06
2023-12-11T04:28:06.593Z,2.06
2023-12-11T04:30:35.709Z,2.06
2023-12-11T04:33:04.181Z,2.06
2023-12-11T04:35:32.665Z,2.06
2023-12-11T04:38:01.053Z,2.05
2023-12-11T04:40:29.415Z,2.05
2023-12-11T04:42:57.824Z,2.05
2023-12-11T04:45:26.167Z,2.06
2023-12-11T04:47:54.557Z,2.06
2023-12-11T04:50:22.964Z,2.06
2023-12-11T04:52:51.346Z,2.07
2023-12-11T04:55:19.724Z,2.07
2023-12-11T04:57:48.243Z,2.06
2023-12-11T05:00:18.389Z,2.07
2023-12-11T05:02:46.826Z,2.06
2023-12-11T05:05:17.529Z,2.06
2023-12-11T05:07:46.053Z,2.06
2023-12-11T05:10:14.625Z,2.06
2023-12-11T05:12:43.072Z,2.06
2023-12-11T05:15:11.646Z,2.06
2023-12-11T05:17:39.901Z,2.06
2023-12-11T05:20:09.082Z,2.06
2023-12-11T05:22:37.966Z,2.06
2023-12-11T05:25:07.070Z,2.06
2023-12-11T05:27:35.437Z,2.07
2023-12-11T05:30:04.244Z,2.07
2023-12-11T05:32:32.818Z,2.09
2023-12-11T05:35:01.094Z,2.09
2023-12-11T05:37:29.764Z,2.10
2023-12-11T05:40:20.573Z,2.10
2023-12-11T05:42:46.879Z,2.11
2023-12-11T05:45:15.429Z,2.11
2023-12-11T05:47:43.949Z,2.12
2023-12-11T05:50:13.510Z,2.14
2023-12-11T05:52:41.976Z,2.15
2023-12-11T05:55:10.443Z,2.17
2023-12-11T05:57:38.904Z,2.18
2023-12-11T06:00:08.037Z,2.20
2023-12-11T06:02:36.854Z,2.22
2023-12-11T06:05:05.763Z,2.24
2023-12-11T06:07:34.363Z,2.25
2023-12-11T06:10:04.438Z,2.27
2023-12-11T06:12:33.818Z,2.29
2023-12-11T06:15:02.209Z,2.30
2023-12-11T06:17:30.937Z,2.31
2023-12-11T06:20:00.772Z,2.32
2023-12-11T06:22:29.248Z,2.33
2023-12-11T06:24:57.688Z,2.36
2023-12-11T06:27:29.346Z,2.38
2023-12-11T06:29:57.917Z,2.40
2023-12-11T06:32:26.642Z,2.42
2023-12-11T06:34:56.301Z,2.44
2023-12-11T06:37:25.495Z,2.46
2023-12-11T06:39:53.984Z,2.47
2023-12-11T06:42:22.453Z,2.49
2023-12-11T06:44:51.023Z,2.51
2023-12-11T06:47:19.423Z,2.51
2023-12-11T06:49:48.265Z,2.52
2023-12-11T06:52:17.236Z,2.52
2023-12-11T06:54:45.780Z,2.53
2023-12-11T06:57:14.318Z,2.53
2023-12-11T06:59:42.656Z,2.54
2023-12-11T07:02:11.165Z,2.55
2023-12-11T07:04:43.340Z,2.57
2023-12-11T07:07:11.877Z,2.60
2023-12-11T07:09:40.475Z,2.65
2023-12-11T07:12:09.355Z,2.68
2023-12-11T07:14:37.618Z,2.72
2023-12-11T07:17:06.167Z,2.75
2023-12-11T07:19:34.529Z,2.78
2023-12-11T07:22:02.931Z,2.80
2023-12-11T07:24:31.368Z,2.82
2023-12-11T07:27:00.777Z,2.85
2023-12-11T07:29:29.136Z,2.87
2023-12-11T07:31:57.605Z,2.94
2023-12-11T07:34:26.268Z,3.00
2023-12-11T07:36:55.367Z,3.05
2023-12-11T07:39:23.911Z,3.12
2023-12-11T07:41:52.272Z,3.18
2023-12-11T07:44:20.632Z,3.25
2023-12-11T07:46:48.924Z,3.32
2023-12-11T07:49:17.449Z,3.39
2023-12-11T07:51:46.037Z,3.45
2023-12-11T07:54:14.464Z,3.49
2023-12-11T07:56:42.875Z,3.52
2023-12-11T07:59:12.097Z,3.54
2023-12-11T08:01:40.753Z,3.55
2023-12-11T08:04:09.653Z,3.56
2023-12-11T08:06:44.980Z,3.55
2023-12-11T08:09:14.737Z,3.55
2023-12-11T08:11:43.640Z,3.54
2023-12-11T08:14:11.972Z,3.54
2023-12-11T08:16:40.404Z,3.55
2023-12-11T08:19:09.010Z,3.57
2023-12-11T08:21:37.454Z,3.59
2023-12-11T08:24:06.265Z,3.65
2023-12-11T08:26:34.604Z,3.72
2023-12-11T08:29:02.996Z,3.82
2023-12-11T08:31:31.838Z,3.95
2023-12-11T08:34:00.394Z,4.09
2023-12-11T08:36:29.154Z,4.22
2023-12-11T08:38:57.587Z,4.36
2023-12-11T08:41:26.023Z,4.50
2023-12-11T08:43:54.584Z,4.64
2023-12-11T08:46:23.531Z,4.78
2023-12-11T08:48:52.119Z,4.92
2023-12-11T08:51:21.035Z,5.06
2023-12-11T08:53:49.396Z,5.19
2023-12-11T08:56:21.015Z,5.33
2023-12-11T08:58:49.436Z,5.49
2023-12-11T09:01:19.010Z,5.66
2023-12-11T09:03:47.806Z,5.84
2023-12-11T09:06:16.420Z,5.99
2023-12-11T09:08:45.152Z,6.12
2023-12-11T09:11:13.513Z,6.22
2023-12-11T09:13:42.355Z,6.30
2023-12-11T09:16:10.816Z,6.38
2023-12-11T09:18:39.424Z,6.44
2023-12-11T09:21:07.833Z,6.51
2023-12-11T09:23:36.289Z,6.55
2023-12-11T09:26:04.966Z,6.57
2023-12-11T09:28:41.340Z,6.57
2023-12-11T09:31:20.578Z,6.58
2023-12-11T09:33:49.331Z,6.60
2023-12-11T09:36:19.901Z,6.61
2023-12-11T09:38:50.846Z,6.66
2023-12-11T09:41:19.823Z,6.70
2023-12-11T09:43:50.054Z,6.72
2023-12-11T09:46:19.786Z,6.77
2023-12-11T09:48:49.712Z,6.88
2023-12-11T09:54:14.914Z,7.06
2023-12-11T09:56:44.969Z,7.14
2023-12-11T09:59:14.831Z,7.21
2023-12-11T10:01:43.382Z,7.28
2023-12-11T10:04:11.769Z,7.32
2023-12-11T10:06:41.123Z,7.34
2023-12-11T10:09:27.446Z,7.38
2023-12-11T10:12:01.073Z,7.40
2023-12-11T10:14:31.637Z,7.43
2023-12-11T10:17:16.777Z,7.51
2023-12-11T10:19:45.326Z,7.58
2023-12-11T10:22:28.684Z,7.61
2023-12-11T10:24:58.430Z,7.60
2023-12-11T10:27:28.652Z,7.63
2023-12-11T10:30:26.905Z,7.68
2023-12-11T10:33:02.953Z,7.74
2023-12-11T10:35:32.442Z,7.84
2023-12-11T10:38:02.486Z,7.95
2023-12-11T10:40:42.068Z,8.04
2023-12-11T10:43:10.601Z,8.09
2023-12-11T10:45:39.397Z,8.15
2023-12-11T10:48:08.423Z,8.25
2023-12-11T10:50:37.971Z,8.32
2023-12-11T10:53:08.592Z,8.39
2023-12-11T10:55:41.448Z,8.43
2023-12-11T10:58:10.670Z,8.45
2023-12-11T11:00:40.016Z,8.45
2023-12-11T11:03:12.125Z,8.44
2023-12-11T11:05:42.551Z,8.46
2023-12-11T11:08:16.908Z,8.43
2023-12-11T11:11:10.401Z,8.36
2023-12-11T11:14:00.560Z,8.34
2023-12-11T11:16:54.777Z,8.34
2023-12-11T11:19:25.710Z,8.35
2023-12-11T11:22:07.950Z,8.36
2023-12-11T11:24:36.835Z,8.35
2023-12-11T11:27:51.706Z,8.35
2023-12-11T11:30:50.133Z,8.38
2023-12-11T11:33:19.085Z,8.41
2023-12-11T11:35:48.081Z,8.43
2023-12-11T11:38:21.459Z,8.47
2023-12-11T11:40:52.566Z,8.51
2023-12-11T11:43:21.427Z,8.58
2023-12-11T11:45:57.088Z,8.59
2023-12-11T11:48:42.472Z,8.58
2023-12-11T11:51:10.978Z,8.53
2023-12-11T11:53:41.159Z,8.47
2023-12-11T11:56:10.827Z,8.40
2023-12-11T11:58:39.313Z,8.34
2023-12-11T12:01:08.060Z,8.28
2023-12-11T12:03:44.210Z,8.21
2023-12-11T12:06:15.144Z,8.17
2023-12-11T12:08:43.766Z,8.10
2023-12-11T12:11:13.139Z,8.03
2023-12-11T12:13:41.807Z,7.98
2023-12-11T12:16:10.363Z,7.90
2023-12-11T12:18:50.348Z,7.85
2023-12-11T12:21:18.988Z,7.78
2023-12-11T12:24:06.183Z,7.73
2023-12-11T12:26:37.327Z,7.70
2023-12-11T12:29:06.275Z,7.65
2023-12-11T12:31:35.193Z,7.59
2023-12-11T12:34:04.442Z,7.59
2023-12-11T12:36:33.296Z,7.60
2023-12-11T12:39:02.055Z,7.62
2023-12-11T12:41:31.887Z,7.63
2023-12-11T12:44:02.706Z,7.64
2023-12-11T12:46:44.371Z,7.66
2023-12-11T12:49:17.767Z,7.69
2023-12-11T12:51:54.383Z,7.72
2023-12-11T12:54:22.871Z,7.75
2023-12-11T12:56:56.916Z,7.77
2023-12-11T12:59:27.046Z,7.77
2023-12-11T13:01:55.549Z,7.80
2023-12-11T13:04:25.419Z,7.82
2023-12-11T13:06:54.018Z,7.81
2023-12-11T13:09:33.950Z,7.78
2023-12-11T13:12:04.366Z,7.78
2023-12-11T13:14:32.828Z,7.78
2023-12-11T13:17:01.035Z,7.75
2023-12-11T13:19:29.448Z,7.73
2023-12-11T13:21:58.169Z,7.74
2023-12-11T13:24:26.577Z,7.75
2023-12-11T13:26:55.293Z,7.72
2023-12-11T13:29:23.724Z,7.69
2023-12-11T13:31:53.760Z,7.64
2023-12-11T13:34:22.328Z,7.58
2023-12-11T13:36:50.770Z,7.51
2023-12-11T13:39:19.280Z,7.42
2023-12-11T13:41:47.775Z,7.34
2023-12-11T13:44:16.467Z,7.24
2023-12-11T13:46:46.615Z,7.16
2023-12-11T13:49:15.078Z,7.05
2023-12-11T13:51:43.695Z,6.93
2023-12-11T13:54:12.123Z,6.81
2023-12-11T13:56:40.466Z,6.69
2023-12-11T13:59:08.854Z,6.59
2023-12-11T14:01:37.968Z,6.52
2023-12-11T14:04:06.466Z,6.47
2023-12-11T14:06:35.330Z,6.39
2023-12-11T14:09:05.018Z,6.30
2023-12-11T14:11:33.539Z,6.22
2023-12-11T14:14:02.039Z,6.13
2023-12-11T14:16:30.508Z,6.08
2023-12-11T14:18:59.086Z,6.02
2023-12-11T14:21:27.654Z,5.95
2023-12-11T14:23:56.130Z,5.87
2023-12-11T14:26:24.511Z,5.81
2023-12-11T14:28:53.092Z,5.76
2023-12-11T14:31:21.494Z,5.72
2023-12-11T14:33:50.230Z,5.67
2023-12-11T14:36:25.096Z,5.62
2023-12-11T14:38:55.739Z,5.56
2023-12-11T14:41:24.081Z,5.51
2023-12-11T14:43:52.444Z,5.44
2023-12-11T14:46:21.051Z,5.39
2023-12-11T14:48:49.599Z,5.33
2023-12-11T14:51:18.023Z,5.27
2023-12-11T14:53:46.447Z,5.21
2023-12-11T14:56:15.021Z,5.16
2023-12-11T14:58:44.153Z,5.11
2023-12-11T15:01:13.781Z,5.07
2023-12-11T15:03:43.143Z,5.03
2023-12-11T15:06:11.686Z,4.99
2023-12-11T15:08:41.204Z,4.96
2023-12-11T15:11:10.215Z,4.93
2023-12-11T15:13:38.656Z,4.92
2023-12-11T15:16:08.730Z,4.91
2023-12-11T15:18:37.315Z,4.91
2023-12-11T15:21:05.993Z,4.92
2023-12-11T15:23:34.748Z,4.92
2023-12-11T15:26:04.776Z,4.91
2023-12-11T15:28:33.176Z,4.89
2023-12-11T15:31:12.989Z,4.88
2023-12-11T15:34:14.062Z,4.89
2023-12-11T15:36:42.646Z,4.90
2023-12-11T15:39:11.287Z,4.90
2023-12-11T15:41:39.768Z,4.92
2023-12-11T15:44:08.228Z,4.93
2023-12-11T15:46:47.114Z,4.92
2023-12-11T15:49:19.639Z,4.91
2023-12-11T15:51:53.546Z,4.90
2023-12-11T15:54:21.939Z,4.86
2023-12-11T15:56:50.628Z,4.79
2023-12-11T15:59:19.199Z,4.70
2023-12-11T16:01:47.623Z,4.60
2023-12-11T16:04:16.118Z,4.51
2023-12-11T16:06:44.725Z,4.43
2023-12-11T16:09:13.530Z,4.35
2023-12-11T16:11:42.081Z,4.28
2023-12-11T16:14:10.377Z,4.22
2023-12-11T16:16:40.813Z,4.15
2023-12-11T16:19:17.351Z,4.10
2023-12-11T16:21:45.848Z,4.06
2023-12-11T16:24:14.315Z,4.03
2023-12-11T16:26:42.653Z,4.00
2023-12-11T16:29:10.940Z,3.96
2023-12-11T16:31:40.201Z,3.92
2023-12-11T16:34:08.729Z,3.90
2023-12-11T16:36:37.162Z,3.91
2023-12-11T16:39:06.178Z,3.93
2023-12-11T16:41:34.542Z,3.94
2023-12-11T16:44:05.702Z,3.92
2023-12-11T16:46:34.284Z,3.91
2023-12-11T16:49:04.467Z,3.91
2023-12-11T16:51:38.146Z,3.92
2023-12-11T16:54:07.382Z,3.90
2023-12-11T16:56:35.892Z,3.88
2023-12-11T16:59:04.183Z,3.86
2023-12-11T17:01:32.650Z,3.83
2023-12-11T17:04:01.540Z,3.80
2023-12-11T17:06:31.680Z,3.77
2023-12-11T17:09:00.621Z,3.73
2023-12-11T17:11:34.819Z,3.69
2023-12-11T17:14:04.089Z,3.64
2023-12-11T17:16:32.405Z,3.61
2023-12-11T17:19:01.082Z,3.58
2023-12-11T17:21:33.946Z,3.55
2023-12-11T17:24:04.807Z,3.52
2023-12-11T17:26:33.367Z,3.48
2023-12-11T17:29:01.785Z,3.45
2023-12-11T17:31:30.249Z,3.42
2023-12-11T17:33:58.869Z,3.39
2023-12-11T17:36:27.633Z,3.36
2023-12-11T17:38:58.250Z,3.34
2023-12-11T17:41:27.614Z,3.33
2023-12-11T17:43:55.957Z,3.31
2023-12-11T17:46:24.342Z,3.31
2023-12-11T17:48:52.874Z,3.28
2023-12-11T17:51:21.364Z,3.27
2023-12-11T17:53:49.688Z,3.26
2023-12-11T17:56:18.196Z,3.25
2023-12-11T17:58:46.723Z,3.24
2023-12-11T18:01:15.184Z,3.23
2023-12-11T18:03:43.583Z,3.20
2023-12-11T18:06:19.505Z,3.19
2023-12-11T18:08:48.051Z,3.19
2023-12-11T18:11:16.459Z,3.19
2023-12-11T18:13:46.138Z,3.19
2023-12-11T18:16:15.180Z,3.19
2023-12-11T18:18:44.522Z,3.19
2023-12-11T18:21:13.082Z,3.20
2023-12-11T18:23:41.551Z,3.20
2023-12-11T18:26:13.126Z,3.20
2023-12-11T18:28:41.615Z,3.19
2023-12-11T18:31:10.213Z,3.18
2023-12-11T18:33:39.790Z,3.18
2023-12-11T18:36:08.619Z,3.18
2023-12-11T18:38:37.675Z,3.19
2023-12-11T18:41:06.739Z,3.20
2023-12-11T18:43:37.181Z,3.19
2023-12-11T18:46:05.999Z,3.19
2023-12-11T18:48:34.398Z,3.19
2023-12-11T18:51:02.859Z,3.20
2023-12-11T18:53:31.214Z,3.21
2023-12-11T18:56:01.914Z,3.21
2023-12-11T18:58:30.920Z,3.22
2023-12-11T19:01:01.225Z,3.25
2023-12-11T19:03:29.963Z,3.28
2023-12-11T19:05:58.809Z,3.31
2023-12-11T19:08:27.271Z,3.33
2023-12-11T19:10:55.796Z,3.34
2023-12-11T19:13:24.699Z,3.34
2023-12-11T19:15:53.426Z,3.35
2023-12-11T19:18:24.061Z,3.38
2023-12-11T19:20:53.448Z,3.41
2023-12-11T19:23:22.952Z,3.45
2023-12-11T19:25:54.193Z,3.48
2023-12-11T19:28:23.909Z,3.51
2023-12-11T19:30:52.658Z,3.52
2023-12-11T19:33:22.100Z,3.53
2023-12-11T19:35:50.985Z,3.55
2023-12-11T19:38:19.592Z,3.58
2023-12-11T19:40:48.156Z,3.60
2023-12-11T19:43:16.578Z,3.61
2023-12-11T19:45:48.053Z,3.61
2023-12-11T19:48:18.909Z,3.61
2023-12-11T19:50:47.650Z,3.60
2023-12-11T19:53:18.172Z,3.59
2023-12-11T19:55:46.828Z,3.58
2023-12-11T19:58:15.293Z,3.58
2023-12-11T20:00:43.785Z,3.58
2023-12-11T20:03:12.279Z,3.57
2023-12-11T20:05:40.817Z,3.58
2023-12-11T20:08:09.217Z,3.59
2023-12-11T20:10:37.820Z,3.61
2023-12-11T20:13:06.323Z,3.62
2023-12-11T20:15:35.220Z,3.63
2023-12-11T20:18:04.186Z,3.63
2023-12-11T20:20:32.600Z,3.63
2023-12-11T20:23:01.133Z,3.63
2023-12-11T20:25:29.658Z,3.63
2023-12-11T20:27:58.363Z,3.63
2023-12-11T20:30:27.265Z,3.63
2023-12-11T20:32:55.814Z,3.65
2023-12-11T20:35:24.730Z,3.66
2023-12-11T20:37:53.096Z,3.67
2023-12-11T20:40:21.487Z,3.73
2023-12-11T20:42:50.084Z,3.81
2023-12-11T20:45:20.110Z,3.90
2023-12-11T20:47:49.777Z,3.96
2023-12-11T20:50:18.516Z,4.02
2023-12-11T20:52:47.021Z,4.05
2023-12-11T20:55:15.931Z,4.09
2023-12-11T20:57:44.481Z,4.15
2023-12-11T21:00:13.647Z,4.18
2023-12-11T21:02:43.778Z,4.22
2023-12-11T21:05:12.394Z,4.27
2023-12-11T21:07:42.793Z,4.31
2023-12-11T21:10:11.745Z,4.35
2023-12-11T21:12:40.400Z,4.41
2023-12-11T21:15:09.280Z,4.48
2023-12-11T21:17:41.701Z,4.60
2023-12-11T21:20:10.903Z,4.69
2023-12-11T21:22:40.992Z,4.74
2023-12-11T21:25:09.667Z,4.79
2023-12-11T21:27:38.254Z,4.83
2023-12-11T21:30:09.773Z,4.89
2023-12-11T21:32:42.946Z,4.95
2023-12-11T21:35:11.422Z,5.00
2023-12-11T21:37:40.559Z,5.05
2023-12-11T21:40:09.437Z,5.10
2023-12-11T21:42:37.974Z,5.15
2023-12-11T21:45:06.898Z,5.20
2023-12-11T21:47:35.648Z,5.24
2023-12-11T21:50:05.967Z,5.28
2023-12-11T21:52:34.425Z,5.32
2023-12-11T21:55:02.890Z,5.35
2023-12-11T21:57:31.512Z,5.38
2023-12-11T22:00:00.139Z,5.39
2023-12-11T22:02:28.560Z,5.41
2023-12-11T22:04:57.263Z,5.41
2023-12-11T22:07:25.692Z,5.41
2023-12-11T22:09:54.172Z,5.39
2023-12-11T22:12:28.450Z,5.37
2023-12-11T22:14:56.916Z,5.34
2023-12-11T22:17:25.446Z,5.31
2023-12-11T22:19:53.865Z,5.29
2023-12-11T22:22:22.366Z,5.27
2023-12-11T22:24:50.879Z,5.27
2023-12-11T22:27:19.141Z,5.24
2023-12-11T22:29:48.834Z,5.21
2023-12-11T22:32:17.566Z,5.17
2023-12-11T22:34:45.974Z,5.12
2023-12-11T22:37:17.195Z,5.09
2023-12-11T22:39:46.181Z,5.06
2023-12-11T22:42:14.466Z,5.04
2023-12-11T22:44:43.504Z,5.04
2023-12-11T22:47:12.113Z,5.02
2023-12-11T22:49:40.479Z,5.00
2023-12-11T22:52:08.893Z,4.97
2023-12-11T22:54:37.297Z,4.95
2023-12-11T22:57:05.721Z,4.94
2023-12-11T22:59:34.264Z,4.94
2023-12-11T23:02:04.421Z,4.94
2023-12-11T23:04:33.257Z,4.93
2023-12-11T23:07:01.625Z,4.92
2023-12-11T23:09:29.993Z,4.91
2023-12-11T23:11:58.432Z,4.89
2023-12-11T23:14:26.791Z,4.87
2023-12-11T23:16:55.225Z,4.85
2023-12-11T23:19:23.705Z,4.84
2023-12-11T23:21:52.191Z,4.83
2023-12-11T23:24:20.565Z,4.81
2023-12-11T23:26:48.849Z,4.79
2023-12-11T23:29:17.103Z,4.76
2023-12-11T23:31:46.387Z,4.73
2023-12-11T23:34:15.892Z,4.71
2023-12-11T23:36:44.261Z,4.70
2023-12-11T23:39:13.078Z,4.69
2023-12-11T23:41:42.510Z,4.67
2023-12-11T23:44:11.174Z,4.65
2023-12-11T23:46:39.707Z,4.65
2023-12-11T23:49:08.135Z,4.64
2023-12-11T23:51:36.524Z,4.61
2023-12-11T23:54:04.908Z,4.58
2023-12-11T23:56:33.204Z,4.56
2023-12-11T23:59:01.695Z,4.55
